Terminal Aerodrome Forecast
Issued by NWS Knoxville/Tri Cities, TN

Home | Current Version | Previous Version | Text Only | Print | Product List | Glossary On
Versions: 1 2 3 4 5 6 7 8 9 10 11 12 13 14 15 16 17 18 19 20 21 22 23 24 25 26 27 28
000
FTUS44 KMRX 241124
TAFCHA
TAF
KCHA 241124Z 2412/2512 00000KT P6SM FEW007 SCT090
     FM241400 VRB04KT P6SM BKN035
     FM241500 31006KT P6SM BKN050
     FM241800 32006KT P6SM VCSH BKN050
     FM250000 34006KT P6SM SKC
     FM250600 00000KT P6SM BKN250=

USA.gov is the U.S. government's official web portal to all federal, state and local government web resources and services.